Lansdowne House Airport

CYLH | YLH

Lansdowne House , Ontario , Canada

Saturday, September 21st, 2019 | 08:01

Weather

CYLH 211114Z AUTO 17005KT 120V200 9SM BKN009 15/14 A2980 RMK SLP099 DENSITY ALT 1100FT

Charts

No Charts Available

Gates

No Gates Available

Runways

No Runways Available

Events

No events for this airport


New event